Time;durP1;ratioP1;P1;durP2;ratioP2;P2;SDS_P1;SDS_P2;PMS_P1;PMS_P2;Temp;Humidity;BMP_temperature;BMP_pressure;BME280_temperature;BME280_humidity;BME280_pressure;Samples;Min_cycle;Max_cycle;Signal;HPM_P1;HPM_P2
2021/08/12 00:04:00;;;;;;;10.20;4.28;;;;;;;;;;10483843;27;20086;-60
2021/08/12 00:08:59;;;;;;;7.22;4.47;;;;;;;;;;10483574;27;20047;-58
2021/08/12 00:13:57;;;;;;;7.47;4.30;;;;;;;;;;10484792;27;20054;-58
2021/08/12 00:18:56;;;;;;;4.80;4.15;;;;;;;;;;10483009;27;20042;-56
2021/08/12 00:23:54;;;;;;;5.22;4.72;;;;;;;;;;10484399;27;20070;-58
2021/08/12 00:28:54;;;;;;;8.82;4.32;;;;;;;;;;10482847;27;20062;-58
2021/08/12 00:33:54;;;;;;;5.32;4.78;;;;;;;;;;10482731;27;20062;-60
2021/08/12 00:38:52;;;;;;;5.90;5.20;;;;;;;;;;10483912;27;20046;-59
2021/08/12 00:43:51;;;;;;;7.72;5.25;;;;;;;;;;10464762;27;20049;-59
2021/08/12 00:48:53;;;;;;;7.22;4.60;;;;;;;;;;10467229;27;20050;-61
2021/08/12 00:53:54;;;;;;;5.50;4.70;;;;;;;;;;10464247;27;20059;-59
2021/08/12 00:58:53;;;;;;;5.32;4.53;;;;;;;;;;10464408;27;20413;-59
2021/08/12 01:03:53;;;;;;;5.93;4.38;;;;;;;;;;10464147;27;20415;-58
2021/08/12 01:08:54;;;;;;;10.50;4.57;;;;;;;;;;10463987;27;20303;-59
2021/08/12 01:13:59;;;;;;;8.05;5.20;;;;;;;;;;10463654;27;20047;-59
2021/08/12 01:19:01;;;;;;;5.05;4.50;;;;;;;;;;10462891;27;20488;-60
2021/08/12 01:24:04;;;;;;;6.38;4.47;;;;;;;;;;10463527;27;20046;-60
2021/08/12 01:29:04;;;;;;;7.88;5.32;;;;;;;;;;10463509;27;20046;-60
2021/08/12 01:34:07;;;;;;;5.93;5.15;;;;;;;;;;10462715;27;20435;-60
2021/08/12 01:39:11;;;;;;;10.65;6.57;;;;;;;;;;10482360;27;20433;-60
2021/08/12 01:44:12;;;;;;;6.53;4.60;;;;;;;;;;10462715;27;20046;-60
2021/08/12 01:49:11;;;;;;;6.53;5.38;;;;;;;;;;10462673;27;20039;-60
2021/08/12 01:54:12;;;;;;;6.88;5.00;;;;;;;;;;10462927;27;20050;-60
2021/08/12 01:59:12;;;;;;;5.97;4.97;;;;;;;;;;10463153;27;20507;-60
2021/08/12 02:04:13;;;;;;;7.07;5.07;;;;;;;;;;10462397;27;20046;-60
2021/08/12 02:09:14;;;;;;;8.32;5.40;;;;;;;;;;10480817;27;20042;-59
2021/08/12 02:14:12;;;;;;;7.05;4.20;;;;;;;;;;10462505;27;20082;-59
2021/08/12 02:19:11;;;;;;;5.63;4.30;;;;;;;;;;10461859;27;20058;-60
2021/08/12 02:24:11;;;;;;;5.38;4.88;;;;;;;;;;10481451;27;20070;-60
2021/08/12 02:29:12;;;;;;;4.82;4.30;;;;;;;;;;10469690;27;20047;-59
2021/08/12 02:34:12;;;;;;;5.78;4.25;;;;;;;;;;10469756;27;20038;-60
2021/08/12 02:39:12;;;;;;;6.20;3.72;;;;;;;;;;10487998;27;20051;-60
2021/08/12 02:44:13;;;;;;;8.25;4.88;;;;;;;;;;10469337;27;20078;-60
2021/08/12 02:49:12;;;;;;;7.95;4.45;;;;;;;;;;10469280;27;20057;-59
2021/08/12 02:54:11;;;;;;;6.65;4.55;;;;;;;;;;10468445;27;20054;-59
2021/08/12 02:59:09;;;;;;;6.38;4.10;;;;;;;;;;10487269;27;20053;-60
2021/08/12 03:04:09;;;;;;;6.75;4.15;;;;;;;;;;10452570;27;20043;-59
2021/08/12 03:09:09;;;;;;;8.13;4.57;;;;;;;;;;10477574;27;20045;-60
2021/08/12 03:14:08;;;;;;;7.35;4.50;;;;;;;;;;10461480;27;20534;-60
2021/08/12 03:19:09;;;;;;;5.72;4.22;;;;;;;;;;10433208;27;20051;-60
2021/08/12 03:24:08;;;;;;;6.45;4.70;;;;;;;;;;10434630;27;20079;-60
2021/08/12 03:29:07;;;;;;;5.80;5.05;;;;;;;;;;10448141;27;20491;-59
2021/08/12 03:34:06;;;;;;;6.75;4.85;;;;;;;;;;10450177;27;20055;-59
2021/08/12 03:39:06;;;;;;;8.93;5.30;;;;;;;;;;10453040;27;20398;-59
2021/08/12 03:44:05;;;;;;;7.03;5.55;;;;;;;;;;10464076;27;20463;-60
2021/08/12 03:49:03;;;;;;;6.10;5.18;;;;;;;;;;10482513;27;20068;-60
2021/08/12 03:54:02;;;;;;;6.68;4.78;;;;;;;;;;10462810;27;20552;-60
2021/08/12 03:59:02;;;;;;;13.80;5.07;;;;;;;;;;10480916;27;20114;-60
2021/08/12 04:04:00;;;;;;;7.65;4.78;;;;;;;;;;10464887;27;20066;-59
2021/08/12 04:08:59;;;;;;;6.30;4.63;;;;;;;;;;10484267;27;20049;-60
2021/08/12 04:13:58;;;;;;;8.25;6.93;;;;;;;;;;10465598;27;20065;-60
2021/08/12 04:18:58;;;;;;;8.18;6.97;;;;;;;;;;10464838;27;20043;-55
2021/08/12 04:23:57;;;;;;;56.95;50.75;;;;;;;;;;10465325;27;20047;-56
2021/08/12 04:28:56;;;;;;;9.27;6.03;;;;;;;;;;10484135;27;20513;-56
2021/08/12 04:33:54;;;;;;;8.70;5.60;;;;;;;;;;10464403;27;20041;-56
2021/08/12 04:38:54;;;;;;;7.03;5.60;;;;;;;;;;10465332;27;20511;-56
2021/08/12 04:43:52;;;;;;;11.18;5.97;;;;;;;;;;10464914;27;20054;-53
2021/08/12 04:48:55;;;;;;;6.15;5.53;;;;;;;;;;10464418;27;20043;-57
2021/08/12 04:53:55;;;;;;;7.88;4.72;;;;;;;;;;10462660;27;20043;-57
2021/08/12 04:58:57;;;;;;;7.40;4.93;;;;;;;;;;10461737;27;20046;-56
2021/08/12 05:03:56;;;;;;;8.40;5.18;;;;;;;;;;10461409;27;20054;-57
2021/08/12 05:08:58;;;;;;;24.98;8.70;;;;;;;;;;10462318;27;20058;-55
2021/08/12 05:13:57;;;;;;;16.13;6.15;;;;;;;;;;10463815;27;20104;-54
2021/08/12 05:18:55;;;;;;;7.57;5.45;;;;;;;;;;10481577;27;20071;-53
2021/08/12 05:23:54;;;;;;;7.57;4.75;;;;;;;;;;10463809;27;20503;-56
2021/08/12 05:28:54;;;;;;;7.25;5.03;;;;;;;;;;10463567;27;20050;-56
2021/08/12 05:33:52;;;;;;;7.13;5.57;;;;;;;;;;10463602;27;20050;-56
2021/08/12 05:38:52;;;;;;;8.30;5.85;;;;;;;;;;10463516;27;20053;-56
2021/08/12 05:43:51;;;;;;;7.40;5.03;;;;;;;;;;10463085;27;20050;-56
2021/08/12 05:48:50;;;;;;;9.60;5.53;;;;;;;;;;10480805;27;20053;-54
2021/08/12 05:53:49;;;;;;;9.93;4.70;;;;;;;;;;10463162;27;20046;-58
2021/08/12 05:58:47;;;;;;;5.65;4.93;;;;;;;;;;10481387;27;20066;-57
2021/08/12 06:03:46;;;;;;;9.02;6.07;;;;;;;;;;10470508;27;20051;-57
2021/08/12 06:08:46;;;;;;;8.85;5.00;;;;;;;;;;10470624;27;20043;-56
2021/08/12 06:13:45;;;;;;;10.05;5.82;;;;;;;;;;10489137;27;20045;-56
2021/08/12 06:18:44;;;;;;;6.15;5.32;;;;;;;;;;10470595;27;20055;-56
2021/08/12 06:23:44;;;;;;;7.55;5.82;;;;;;;;;;10470537;27;20473;-56
2021/08/12 06:28:45;;;;;;;12.90;6.28;;;;;;;;;;10470479;27;20607;-55
2021/08/12 06:33:44;;;;;;;15.65;6.20;;;;;;;;;;10488256;27;20059;-55
2021/08/12 06:38:42;;;;;;;7.68;4.95;;;;;;;;;;10469080;27;20046;-52
2021/08/12 06:43:41;;;;;;;10.15;5.18;;;;;;;;;;10469729;27;20047;-56
2021/08/12 06:48:40;;;;;;;11.18;5.72;;;;;;;;;;10469304;27;20062;-55
2021/08/12 06:54:00;;;;;;;12.05;6.30;;;;;;;;;;10469610;27;20051;-57
2021/08/12 06:58:58;;;;;;;8.48;5.78;;;;;;;;;;10486764;27;20047;-56
2021/08/12 07:03:59;;;;;;;9.65;5.20;;;;;;;;;;10468484;27;20043;-57
2021/08/12 07:08:58;;;;;;;7.55;6.55;;;;;;;;;;10468254;27;20418;-56
2021/08/12 07:13:59;;;;;;;6.68;5.43;;;;;;;;;;10487140;27;20487;-55
2021/08/12 07:19:00;;;;;;;7.93;6.00;;;;;;;;;;10468136;27;20062;-52
2021/08/12 07:24:01;;;;;;;8.40;5.00;;;;;;;;;;10467370;27;20395;-55
2021/08/12 07:28:59;;;;;;;6.68;5.57;;;;;;;;;;10467892;27;20139;-53
2021/08/12 07:33:59;;;;;;;9.07;5.43;;;;;;;;;;10485466;27;20526;-54
2021/08/12 07:38:59;;;;;;;7.60;5.32;;;;;;;;;;10467015;27;20035;-60
2021/08/12 07:44:09;;;;;;;6.50;4.80;;;;;;;;;;10485759;27;20086;-60
2021/08/12 07:49:08;;;;;;;6.10;5.07;;;;;;;;;;10467113;27;20043;-60
2021/08/12 07:54:07;;;;;;;9.82;4.95;;;;;;;;;;10485764;27;20049;-61
2021/08/12 07:59:06;;;;;;;6.60;5.97;;;;;;;;;;10485759;27;20054;-61
2021/08/12 08:04:04;;;;;;;12.35;6.07;;;;;;;;;;10484660;27;20078;-60
2021/08/12 08:09:03;;;;;;;9.10;5.68;;;;;;;;;;10484242;27;20039;-61
2021/08/12 08:14:02;;;;;;;11.27;5.90;;;;;;;;;;10485054;27;20044;-62
2021/08/12 08:19:01;;;;;;;10.80;6.00;;;;;;;;;;10483259;27;20055;-60
2021/08/12 08:23:59;;;;;;;10.63;5.10;;;;;;;;;;10483811;27;20074;-60
2021/08/12 08:28:57;;;;;;;8.10;5.65;;;;;;;;;;10484386;27;20042;-61
2021/08/12 08:33:59;;;;;;;9.18;5.50;;;;;;;;;;10484091;27;20039;-61
2021/08/12 08:38:57;;;;;;;9.45;5.22;;;;;;;;;;10483312;27;20081;-61
2021/08/12 08:43:55;;;;;;;8.63;5.22;;;;;;;;;;10483675;27;20073;-61
2021/08/12 08:48:56;;;;;;;5.63;4.97;;;;;;;;;;10484004;27;20363;-60
2021/08/12 08:53:55;;;;;;;7.88;5.03;;;;;;;;;;10482610;27;20058;-61
2021/08/12 08:58:54;;;;;;;6.80;4.55;;;;;;;;;;10482185;27;20046;-62
2021/08/12 09:03:52;;;;;;;7.93;5.57;;;;;;;;;;10482562;27;20047;-61
2021/08/12 09:08:50;;;;;;;10.00;5.13;;;;;;;;;;10483188;27;20046;-61
2021/08/12 09:13:50;;;;;;;5.32;4.50;;;;;;;;;;10483602;27;20050;-61
2021/08/12 09:18:48;;;;;;;6.30;4.85;;;;;;;;;;10482401;27;20050;-61
2021/08/12 09:23:56;;;;;;;6.30;4.97;;;;;;;;;;10482849;27;20043;-61
2021/08/12 09:28:56;;;;;;;11.80;5.82;;;;;;;;;;10481122;27;20043;-61
2021/08/12 09:33:56;;;;;;;8.10;4.78;;;;;;;;;;10481905;27;20111;-60
2021/08/12 09:39:11;;;;;;;6.25;4.57;;;;;;;;;;10491268;27;20073;-61
2021/08/12 09:44:24;;;;;;;8.38;5.15;;;;;;;;;;10490397;27;20043;-61
2021/08/12 09:49:24;;;;;;;6.80;4.60;;;;;;;;;;10491129;27;20054;-61
2021/08/12 09:54:28;;;;;;;8.82;5.63;;;;;;;;;;10490048;27;20081;-61
2021/08/12 09:59:29;;;;;;;7.85;4.47;;;;;;;;;;10489899;27;20077;-61
2021/08/12 10:04:28;;;;;;;6.35;4.28;;;;;;;;;;10488957;27;20074;-60
2021/08/12 10:09:39;;;;;;;7.47;4.65;;;;;;;;;;10490177;27;20034;-61
2021/08/12 10:14:37;;;;;;;9.45;4.68;;;;;;;;;;10489144;27;20047;-61
2021/08/12 10:19:37;;;;;;;4.82;4.32;;;;;;;;;;10488295;27;20085;-61
2021/08/12 10:24:36;;;;;;;4.97;4.47;;;;;;;;;;10488814;27;20050;-60
2021/08/12 10:29:35;;;;;;;5.97;4.90;;;;;;;;;;10489163;27;20081;-60
2021/08/12 10:34:33;;;;;;;11.68;5.10;;;;;;;;;;10489086;27;20051;-61
2021/08/12 10:39:33;;;;;;;6.20;4.55;;;;;;;;;;10489042;27;20045;-60
2021/08/12 10:44:31;;;;;;;6.40;4.72;;;;;;;;;;10488687;27;20030;-60
2021/08/12 10:49:30;;;;;;;6.32;4.80;;;;;;;;;;10487534;27;20513;-61
2021/08/12 10:54:34;;;;;;;8.23;4.68;;;;;;;;;;10487756;27;20049;-61
2021/08/12 10:59:34;;;;;;;5.32;4.68;;;;;;;;;;10488253;27;20039;-61
2021/08/12 11:04:47;;;;;;;6.57;4.80;;;;;;;;;;10486567;27;20039;-60
2021/08/12 11:09:57;;;;;;;7.40;4.43;;;;;;;;;;10488019;27;20424;-61
2021/08/12 11:14:55;;;;;;;5.18;4.35;;;;;;;;;;10487750;27;20288;-61
2021/08/12 11:19:54;;;;;;;5.25;4.05;;;;;;;;;;10486475;27;20046;-61
2021/08/12 11:24:53;;;;;;;11.82;4.75;;;;;;;;;;10487394;27;20474;-61
2021/08/12 11:29:52;;;;;;;34.00;6.25;;;;;;;;;;10485092;27;20050;-61
2021/08/12 11:34:56;;;;;;;7.45;4.90;;;;;;;;;;10467026;27;20457;-62
2021/08/12 11:39:56;;;;;;;9.07;5.10;;;;;;;;;;10486779;27;20066;-61
2021/08/12 11:44:56;;;;;;;9.80;5.10;;;;;;;;;;10486338;27;20042;-60
2021/08/12 11:49:56;;;;;;;6.72;4.75;;;;;;;;;;10484764;27;20039;-61
2021/08/12 11:54:58;;;;;;;8.85;5.07;;;;;;;;;;10484949;27;20046;-61
2021/08/12 12:00:05;;;;;;;5.97;4.75;;;;;;;;;;10465124;27;20050;-61
2021/08/12 12:05:10;;;;;;;8.52;5.25;;;;;;;;;;10487610;27;20078;-61
2021/08/12 12:10:09;;;;;;;10.10;4.60;;;;;;;;;;10484413;27;20054;-60
2021/08/12 12:15:09;;;;;;;5.90;5.28;;;;;;;;;;10484302;27;20035;-61
2021/08/12 12:20:10;;;;;;;11.15;4.78;;;;;;;;;;10483254;27;20049;-61
2021/08/12 12:25:10;;;;;;;12.05;4.75;;;;;;;;;;10484892;27;20129;-62
2021/08/12 12:30:11;;;;;;;16.92;5.75;;;;;;;;;;10483809;27;20045;-61
2021/08/12 12:35:10;;;;;;;9.07;4.93;;;;;;;;;;10484555;27;20236;-61
2021/08/12 12:40:10;;;;;;;10.27;5.03;;;;;;;;;;10484211;27;20471;-61
2021/08/12 12:45:09;;;;;;;6.85;5.18;;;;;;;;;;10482762;27;20509;-61
2021/08/12 12:50:11;;;;;;;7.03;4.68;;;;;;;;;;10483202;27;20110;-60
2021/08/12 12:55:18;;;;;;;7.25;5.40;;;;;;;;;;10483084;27;20050;-61
2021/08/12 13:00:27;;;;;;;6.13;4.80;;;;;;;;;;10483551;27;20042;-60
2021/08/12 13:05:47;;;;;;;8.02;5.00;;;;;;;;;;10482639;27;20042;-60
2021/08/12 13:10:45;;;;;;;7.43;4.68;;;;;;;;;;10482190;27;20085;-61
2021/08/12 13:15:50;;;;;;;6.07;4.40;;;;;;;;;;10483178;27;20570;-60
2021/08/12 13:20:50;;;;;;;5.63;4.20;;;;;;;;;;10481156;27;20066;-61
2021/08/12 13:25:56;;;;;;;7.78;5.97;;;;;;;;;;10482634;27;20550;-59
2021/08/12 13:30:54;;;;;;;6.07;4.90;;;;;;;;;;10482339;27;20043;-60
2021/08/12 13:35:54;;;;;;;7.32;4.22;;;;;;;;;;10481650;27;20046;-60
2021/08/12 13:40:54;;;;;;;5.50;4.38;;;;;;;;;;10482724;27;20073;-60
2021/08/12 13:45:53;;;;;;;35.38;19.08;;;;;;;;;;10480297;27;20078;-61
2021/08/12 13:50:51;;;;;;;26.50;14.93;;;;;;;;;;10482641;27;20050;-60
2021/08/12 13:55:51;;;;;;;6.75;5.47;;;;;;;;;;10483739;27;20074;-61
2021/08/12 14:00:49;;;;;;;8.55;6.15;;;;;;;;;;10480391;27;20046;-61
2021/08/12 14:05:47;;;;;;;10.70;5.15;;;;;;;;;;10482399;27;20042;-61
2021/08/12 14:10:45;;;;;;;17.15;5.63;;;;;;;;;;10481860;27;20049;-61
2021/08/12 14:15:45;;;;;;;6.28;5.65;;;;;;;;;;10482110;27;20043;-61
2021/08/12 14:20:43;;;;;;;10.10;4.25;;;;;;;;;;10482107;27;20096;-61
2021/08/12 14:25:42;;;;;;;6.32;5.40;;;;;;;;;;10488706;27;20046;-61
2021/08/12 14:30:40;;;;;;;5.35;4.80;;;;;;;;;;10491431;27;20046;-60
2021/08/12 14:35:40;;;;;;;6.75;4.88;;;;;;;;;;10489619;27;20046;-61
2021/08/12 14:40:42;;;;;;;7.78;4.90;;;;;;;;;;10489894;27;20489;-61
2021/08/12 14:45:41;;;;;;;11.10;4.50;;;;;;;;;;10489209;27;20046;-60
2021/08/12 14:50:40;;;;;;;11.15;5.75;;;;;;;;;;10488094;27;20283;-61
2021/08/12 14:55:39;;;;;;;27.30;7.32;;;;;;;;;;10488750;27;20042;-62
2021/08/12 15:00:37;;;;;;;28.50;7.38;;;;;;;;;;10488261;27;20043;-61
2021/08/12 15:05:36;;;;;;;6.07;4.38;;;;;;;;;;10488804;27;20305;-61
2021/08/12 15:10:36;;;;;;;15.32;6.97;;;;;;;;;;10487535;27;20074;-62
2021/08/12 15:15:34;;;;;;;24.33;16.23;;;;;;;;;;10449227;27;20070;-61
2021/08/12 15:20:34;;;;;;;9.13;3.97;;;;;;;;;;10452010;27;20487;-60
2021/08/12 15:25:33;;;;;;;7.55;5.50;;;;;;;;;;10456171;27;20331;-62
2021/08/12 15:30:33;;;;;;;9.32;5.80;;;;;;;;;;10454817;27;20088;-60
2021/08/12 15:35:31;;;;;;;7.85;6.10;;;;;;;;;;10470952;27;20069;-62
2021/08/12 15:40:30;;;;;;;5.47;4.95;;;;;;;;;;10478059;27;20455;-60
2021/08/12 15:45:28;;;;;;;6.20;5.32;;;;;;;;;;10479726;27;20478;-61
2021/08/12 15:50:28;;;;;;;8.98;4.97;;;;;;;;;;10473686;27;20073;-61
2021/08/12 15:55:28;;;;;;;9.40;5.80;;;;;;;;;;10479619;27;20046;-60
2021/08/12 16:00:29;;;;;;;5.13;4.60;;;;;;;;;;10485157;27;20030;-61
2021/08/12 16:05:28;;;;;;;6.80;3.83;;;;;;;;;;10485080;27;20069;-60
2021/08/12 16:10:28;;;;;;;7.25;5.50;;;;;;;;;;10484017;27;20074;-61
2021/08/12 16:15:26;;;;;;;4.97;4.05;;;;;;;;;;10460120;27;20495;-61
2021/08/12 16:20:25;;;;;;;6.55;5.47;;;;;;;;;;10453067;27;20074;-59
2021/08/12 16:25:25;;;;;;;4.28;3.88;;;;;;;;;;10475087;27;20322;-60
2021/08/12 16:30:23;;;;;;;9.18;3.75;;;;;;;;;;10469073;27;20081;-60
2021/08/12 16:35:22;;;;;;;7.25;4.60;;;;;;;;;;10475904;27;20058;-62
2021/08/12 16:40:21;;;;;;;7.13;4.45;;;;;;;;;;10480552;27;20073;-60
2021/08/12 16:45:21;;;;;;;6.95;3.80;;;;;;;;;;10479984;27;20042;-61
2021/08/12 16:50:19;;;;;;;7.22;4.35;;;;;;;;;;10480454;27;20070;-61
2021/08/12 16:55:17;;;;;;;6.50;4.30;;;;;;;;;;10484033;27;20043;-63
2021/08/12 17:00:16;;;;;;;9.07;5.40;;;;;;;;;;10483974;27;20039;-60
2021/08/12 17:05:16;;;;;;;14.05;6.57;;;;;;;;;;10483934;27;20490;-62
2021/08/12 17:10:15;;;;;;;13.98;7.90;;;;;;;;;;10483801;27;20089;-62
2021/08/12 17:15:13;;;;;;;7.85;6.25;;;;;;;;;;10483656;27;20050;-61
2021/08/12 17:20:12;;;;;;;6.70;5.78;;;;;;;;;;10482054;27;20093;-61
2021/08/12 17:25:12;;;;;;;8.10;5.88;;;;;;;;;;10460742;27;20063;-61
2021/08/12 17:30:11;;;;;;;9.93;5.88;;;;;;;;;;10446190;27;20090;-60
2021/08/12 17:35:10;;;;;;;9.35;6.07;;;;;;;;;;10435120;28;20078;-60
2021/08/12 17:40:09;;;;;;;7.20;5.82;;;;;;;;;;10436709;28;20073;-60
2021/08/12 17:45:09;;;;;;;10.60;5.85;;;;;;;;;;10436736;28;20538;-61
2021/08/12 17:50:08;;;;;;;9.15;6.20;;;;;;;;;;10440600;28;20078;-61
2021/08/12 17:55:07;;;;;;;8.50;5.65;;;;;;;;;;10442031;27;20047;-57
2021/08/12 18:00:06;;;;;;;6.55;5.22;;;;;;;;;;10453097;27;20043;-59
2021/08/12 18:05:11;;;;;;;6.00;5.40;;;;;;;;;;10488501;27;20499;-60
2021/08/12 18:10:12;;;;;;;11.13;5.97;;;;;;;;;;10487851;27;20415;-60
2021/08/12 18:15:10;;;;;;;7.82;5.55;;;;;;;;;;10489560;27;20043;-60
2021/08/12 18:20:11;;;;;;;13.63;5.72;;;;;;;;;;10488169;27;20039;-59
2021/08/12 18:25:09;;;;;;;9.55;5.65;;;;;;;;;;10470473;27;20042;-59
2021/08/12 18:30:09;;;;;;;7.43;5.13;;;;;;;;;;10455756;27;20105;-58
2021/08/12 18:35:07;;;;;;;6.50;5.75;;;;;;;;;;10446573;27;20051;-60
2021/08/12 18:40:08;;;;;;;6.55;5.85;;;;;;;;;;10447280;27;20101;-60
2021/08/12 18:45:07;;;;;;;8.07;6.57;;;;;;;;;;10446765;27;20093;-58
2021/08/12 18:50:05;;;;;;;9.75;6.15;;;;;;;;;;10446815;27;20078;-60
2021/08/12 18:55:04;;;;;;;10.18;6.10;;;;;;;;;;10445930;27;20047;-59
2021/08/12 19:00:06;;;;;;;7.63;6.28;;;;;;;;;;10446234;27;20479;-59
2021/08/12 19:05:05;;;;;;;6.80;5.45;;;;;;;;;;10445611;27;20039;-58
2021/08/12 19:10:03;;;;;;;7.25;5.97;;;;;;;;;;10458101;27;20066;-56
2021/08/12 19:15:02;;;;;;;9.60;6.22;;;;;;;;;;10487831;27;20085;-59
2021/08/12 19:20:02;;;;;;;9.38;6.10;;;;;;;;;;10486715;27;20053;-60
2021/08/12 19:25:00;;;;;;;8.00;5.95;;;;;;;;;;10487813;27;20039;-60
2021/08/12 19:29:59;;;;;;;8.82;6.20;;;;;;;;;;10487472;27;20171;-57
2021/08/12 19:34:57;;;;;;;10.57;6.40;;;;;;;;;;10487396;27;20045;-59
2021/08/12 19:39:57;;;;;;;6.50;5.43;;;;;;;;;;10487028;27;20042;-60
2021/08/12 19:44:55;;;;;;;8.73;5.78;;;;;;;;;;10486044;27;20066;-58
2021/08/12 19:49:53;;;;;;;9.07;5.63;;;;;;;;;;10485606;27;20514;-60
2021/08/12 19:54:52;;;;;;;6.45;5.57;;;;;;;;;;10484672;27;20529;-59
2021/08/12 19:59:51;;;;;;;9.20;5.50;;;;;;;;;;10466915;27;20069;-58
2021/08/12 20:04:50;;;;;;;9.65;5.95;;;;;;;;;;10484993;27;20046;-58
2021/08/12 20:09:48;;;;;;;8.75;5.63;;;;;;;;;;10485010;27;20457;-59
2021/08/12 20:14:46;;;;;;;16.55;6.63;;;;;;;;;;10484443;27;20054;-57
2021/08/12 20:19:47;;;;;;;7.55;5.50;;;;;;;;;;10483452;27;20062;-57
2021/08/12 20:24:45;;;;;;;11.85;7.05;;;;;;;;;;10484529;27;20050;-57
2021/08/12 20:29:44;;;;;;;8.13;5.40;;;;;;;;;;10485041;27;20046;-59
2021/08/12 20:34:42;;;;;;;7.47;5.10;;;;;;;;;;10484580;27;20039;-59
2021/08/12 20:39:42;;;;;;;12.18;5.20;;;;;;;;;;10483391;27;20045;-59
2021/08/12 20:44:40;;;;;;;16.25;6.13;;;;;;;;;;10484520;27;20075;-56
2021/08/12 20:49:40;;;;;;;8.70;5.50;;;;;;;;;;10483477;27;20082;-57
2021/08/12 20:54:38;;;;;;;7.43;5.15;;;;;;;;;;10484381;27;20039;-60
2021/08/12 20:59:40;;;;;;;8.25;6.00;;;;;;;;;;10464668;27;20038;-60
2021/08/12 21:04:38;;;;;;;10.10;6.15;;;;;;;;;;10483751;27;20046;-59
2021/08/12 21:09:36;;;;;;;5.70;5.07;;;;;;;;;;10482513;27;20542;-59
2021/08/12 21:14:35;;;;;;;7.38;6.07;;;;;;;;;;10483629;27;20057;-59
2021/08/12 21:19:34;;;;;;;7.65;4.45;;;;;;;;;;10481270;27;20054;-60
2021/08/12 21:24:33;;;;;;;7.00;4.38;;;;;;;;;;10464110;27;20046;-59
2021/08/12 21:29:31;;;;;;;6.22;4.10;;;;;;;;;;10482121;27;20074;-59
2021/08/12 21:34:29;;;;;;;6.82;4.13;;;;;;;;;;10482322;27;20518;-59
2021/08/12 21:39:29;;;;;;;6.10;4.35;;;;;;;;;;10482942;27;20495;-59
2021/08/12 21:44:27;;;;;;;5.45;4.45;;;;;;;;;;10483122;27;20038;-58
2021/08/12 21:49:26;;;;;;;5.63;4.45;;;;;;;;;;10467835;27;20078;-58
2021/08/12 21:54:24;;;;;;;4.70;4.18;;;;;;;;;;10438847;27;20079;-58
2021/08/12 21:59:24;;;;;;;4.53;3.88;;;;;;;;;;10467279;27;20069;-58
2021/08/12 22:04:24;;;;;;;4.40;3.97;;;;;;;;;;10474292;27;20039;-58
2021/08/12 22:09:22;;;;;;;4.32;3.92;;;;;;;;;;10482410;27;20108;-58
2021/08/12 22:14:21;;;;;;;5.90;4.47;;;;;;;;;;10480997;27;20073;-57
2021/08/12 22:19:20;;;;;;;5.60;4.18;;;;;;;;;;10483424;27;20039;-58
2021/08/12 22:24:19;;;;;;;5.70;4.40;;;;;;;;;;10460531;27;20387;-58
2021/08/12 22:29:17;;;;;;;6.13;3.92;;;;;;;;;;10452074;27;20529;-58
2021/08/12 22:34:16;;;;;;;5.22;4.72;;;;;;;;;;10439242;28;20051;-58
2021/08/12 22:39:15;;;;;;;5.55;4.78;;;;;;;;;;10439291;28;20039;-59
2021/08/12 22:44:14;;;;;;;6.78;4.85;;;;;;;;;;10443194;27;20043;-58
2021/08/12 22:49:12;;;;;;;6.70;4.65;;;;;;;;;;10446285;27;20090;-54
2021/08/12 22:54:10;;;;;;;6.22;4.80;;;;;;;;;;10446769;27;20430;-58
2021/08/12 22:59:10;;;;;;;8.73;4.53;;;;;;;;;;10446082;27;20062;-59
2021/08/12 23:04:08;;;;;;;8.02;4.78;;;;;;;;;;10445816;27;20058;-59
2021/08/12 23:09:06;;;;;;;6.28;4.45;;;;;;;;;;10445813;27;20085;-56
2021/08/12 23:14:05;;;;;;;6.68;4.50;;;;;;;;;;10445993;27;20432;-59
2021/08/12 23:19:04;;;;;;;8.40;4.80;;;;;;;;;;10444998;27;20518;-59
2021/08/12 23:24:04;;;;;;;7.05;4.63;;;;;;;;;;10445636;27;20043;-59
2021/08/12 23:29:02;;;;;;;5.22;4.57;;;;;;;;;;10445363;27;20040;-59
2021/08/12 23:34:01;;;;;;;6.65;4.60;;;;;;;;;;10444874;27;20046;-59
2021/08/12 23:39:00;;;;;;;5.32;4.80;;;;;;;;;;10444702;27;20046;-60
2021/08/12 23:43:59;;;;;;;6.03;4.75;;;;;;;;;;10444331;27;20058;-59
2021/08/12 23:48:57;;;;;;;6.75;5.03;;;;;;;;;;10444409;27;20336;-59
2021/08/12 23:53:55;;;;;;;6.10;4.93;;;;;;;;;;10444136;27;20043;-59
2021/08/12 23:58:55;;;;;;;7.03;4.90;;;;;;;;;;10444187;27;20047;-59
